• Join FlightAware (Why Join?)
  • Login
  • US Flag 
10:56PM EDT


 

Airport Tracker/Info


-or-


 

Live Flight TrackerFlight Track Log ✈ GJS3710 ✈ 28-Apr-2013 ✈ KDEN - KSTL

Flight Track Log - Related Links

Times and Time Zones

All times are in EDT time to prevent confusion due to time zone crossing. See the GJS3710 flight status page for this flight to view local times or setup timezone preferences in your user account.

Time Position Orientation Groundspeed Altitude Reporting Facility
EDT Latitude Longitude Course Direction KTS MPH feet Rate Location/Type
03:02PM 39.9167 -104.6833 108° East 181 208 6,400  Level Denver TRACON
03:03PM 39.9333 -104.6167 72° East 233 268 8,000 1,380 Climbing Denver TRACON
03:05PM 39.7718 -104.0830 101° East  Level FlightAware Approximate
03:05PM 39.8550 -104.4978 131° Southeast 288 331 10,000  Level Denver Center
03:06PM 39.7667 -103.9354 90° East  Level FlightAware Approximate
03:06PM 39.8192 -104.4117 118° Southeast 316 364 11,100  Level Denver Center
03:07PM 39.7435 -103.7906 108° East  Level FlightAware Approximate
03:07PM 39.8006 -104.2561 99° East 361 415 13,300  Level Denver Center
03:08PM 39.7836 -104.1122 99° East 376 433 15,300 1,740 Climbing Denver Center
03:09PM 39.7811 -103.9733 91° East 387 445 17,000 1,680 Climbing Denver Center
03:10PM 39.7761 -103.8203 92° East 397 457 18,800 1,500 Climbing Denver Center
03:11PM 39.7728 -103.6800 92° East 389 448 20,200 1,380 Climbing Denver Center
03:12PM 39.7686 -103.5244 92° East 421 484 21,700 1,500 Climbing Denver Center
03:13PM 39.7639 -103.3686 92° East 428 493 23,400 1,380 Climbing Denver Center
03:14PM 39.7592 -103.2103 92° East 434 499 24,600 1,200 Climbing Denver Center
03:15PM 39.7517 -103.0194 93° East 448 516 25,900 1,200 Climbing Denver Center
03:16PM 39.7456 -102.8558 93° East 451 519 27,100 960 Climbing Denver Center
03:17PM 39.7403 -102.6853 92° East 460 529 27,900 720 Climbing Denver Center
03:18PM 39.7353 -102.5514 93° East 464 534 28,600 960 Climbing Denver Center
03:19PM 39.7267 -102.3367 93° East 466 536 29,900 960 Climbing Denver Center
03:20PM 39.7183 -102.1744 94° East 470 541 30,600 660 Climbing Denver Center
03:21PM 39.7111 -101.9828 93° East 477 549 31,300 660 Climbing Denver Center
03:22PM 39.7033 -101.8183 93° East 479 551 32,000 1,080 Climbing Denver Center
03:23PM 39.6953 -101.6306 93° East 467 537 33,600 1,200 Climbing Denver Center
03:24PM 39.6872 -101.4728 94° East 460 529 34,500 720 Climbing Denver Center
03:25PM 39.6786 -101.2908 93° East 456 525 35,200 660 Climbing Denver Center
03:26PM 39.6706 -101.1336 94° East 457 526 35,900 780 Climbing Denver Center
03:27PM 39.6614 -100.9539 94° East 451 519 36,900 480 Climbing Denver Center
03:28PM 39.6522 -100.8006 94° East 448 516 37,000  Climbing Denver Center
03:29PM 39.6422 -100.6161 94° East 458 527 37,000  Level Denver Center
03:30PM 39.6333 -100.4561 94° East 464 534 37,000  Level Denver Center
03:32PM 39.6211 -100.2456 94° East 460 529 37,000  Level Denver Center
03:33PM 39.6117 -100.0914 94° East 451 519 37,000  Level Denver Center
03:34PM 39.6011 -99.9231 95° East 455 524 37,000  Level Denver Center
03:35PM 39.5917 -99.7617 94° East 451 519 37,000  Level Denver Center
03:36PM 39.5811 -99.5997 95° East 451 519 37,000  Level Denver Center
03:37PM 39.5656 -99.3719 95° East 454 522 37,000  Level Denver Center
03:38PM 39.5531 -99.1758 95° East 456 525 37,000  Level Denver Center
03:39PM 39.5417 -99.0119 95° East 456 525 37,000  Level Denver Center
03:40PM 39.5300 -98.8486 95° East 457 526 37,000  Level Denver Center
03:41PM 39.5175 -98.6858 96° East 457 526 37,000  Level Denver Center
03:42PM 39.5061 -98.5228 95° East 457 526 37,000  Level Denver Center
03:43PM 39.4922 -98.3294 95° East 452 520 37,000  Level Denver Center
03:44PM 39.4800 -98.1681 96° East 452 520 37,000  Level Denver Center
03:46PM 39.4664 -97.9981 96° East 451 519 37,000  Level Kansas City Center
03:47PM 39.4553 -97.8439 95° East 453 521 37,000  Level Kansas City Center
03:48PM 39.4389 -97.6503 96° East 451 519 37,000  Level Kansas City Center
03:49PM 39.4275 -97.5078 96° East 450 518 37,000  Level Kansas City Center
03:50PM 39.4131 -97.3294 96° East 448 516 37,000  Level Kansas City Center
03:51PM 39.4003 -97.1747 96° East 451 519 37,000  Level Kansas City Center
03:52PM 39.3825 -96.9961 97° East 451 519 37,000  Level Kansas City Center
03:53PM 39.3706 -96.8406 96° East 453 521 37,000  Level Kansas City Center
03:54PM 39.3550 -96.6600 96° East 454 522 37,000  Level Kansas City Center
03:55PM 39.3397 -96.5058 97° East 453 521 37,000  Level Kansas City Center
03:56PM 39.3228 -96.3264 97° East 452 520 37,000  Level Kansas City Center
03:57PM 39.3106 -96.1806 96° East 453 521 37,000  Level Kansas City Center
03:58PM 39.2903 -95.9911 98° East 453 521 37,000  Level Kansas City Center
03:59PM 39.2756 -95.8378 97° East 450 518 37,000  Level Kansas City Center
04:00PM 39.2611 -95.6839 97° East 452 520 37,000  Level Kansas City Center
04:01PM 39.2425 -95.5036 98° East 454 522 37,000  Level Kansas City Center
04:02PM 39.2256 -95.3342 97° East 452 520 37,000  Level Kansas City Center
04:03PM 39.2067 -95.1619 98° East 453 521 37,000  Level Kansas City Center
04:04PM 39.1906 -95.0036 97° East 452 520 37,000  Level Kansas City Center
04:05PM 39.1739 -94.8506 98° East 452 520 37,000  Level Kansas City Center
04:06PM 39.1556 -94.6703 97° East 454 522 37,000  Level Kansas City Center
04:07PM 39.1383 -94.5181 98° East 449 517 37,000  Level Kansas City Center
04:08PM 39.1192 -94.3408 98° East 448 516 37,000  Level Kansas City Center
04:09PM 39.1014 -94.1869 98° East 452 520 37,000  Level Kansas City Center
04:10PM 39.0789 -94.0094 99° East 452 520 37,000  Level Kansas City Center
04:11PM 39.0603 -93.8569 99° East 450 518 37,000  Level Kansas City Center
04:12PM 39.0378 -93.6789 99° East 452 520 37,000  Level Kansas City Center
04:13PM 39.0175 -93.5261 100° East 453 521 37,000 -720 Level Kansas City Center
04:15PM 38.9961 -93.3519 99° East 448 516 35,600 -1,560 Descending Kansas City Center
04:16PM 38.9742 -93.1892 100° East 453 521 33,800 -1,800 Descending Kansas City Center
04:17PM 38.9539 -93.0211 99° East 462 532 32,000 -1,800 Descending Kansas City Center
04:18PM 38.9314 -92.8558 100° East 468 539 30,200 -1,740 Descending Kansas City Center
04:19PM 38.9083 -92.6939 100° East 463 533 28,500 -1,620 Descending Kansas City Center
04:20PM 38.8869 -92.5331 100° East 459 528 26,900 -1,500 Descending Kansas City Center
04:21PM 38.8653 -92.3764 100° East 451 519 25,400 -1,440 Descending Kansas City Center
04:22PM 38.8439 -92.2214 100° East 442 509 24,000 -1,500 Descending Kansas City Center
04:23PM 38.8172 -92.0417 101° East 429 494 22,300 -1,500 Descending Kansas City Center
04:24PM 38.7958 -91.8939 100° East 422 486 20,900 -1,380 Descending Kansas City Center
04:25PM 38.7747 -91.7481 100° East 417 480 19,500 -1,260 Descending Kansas City Center
04:26PM 38.7558 -91.6222 101° East 410 472 18,300 -1,500 Descending Kansas City Center
04:27PM 38.7314 -91.4547 101° East 403 464 16,500 -1,560 Descending Kansas City Center
04:28PM 38.7114 -91.3167 100° East 398 458 15,100 -1,380 Descending Kansas City Center
04:29PM 38.6936 -91.1842 100° East 386 444 13,700 -1,380 Descending Kansas City Center
04:30PM 38.6983 -91.0622 87° East 351 404 12,300 -1,380 Descending Kansas City Center
04:31PM 38.7008 -90.9422 88° East 339 390 10,900 -1,020 Descending Kansas City Center
04:32PM 38.7042 -90.7942 88° East 346 398 10,300 -540 Descending Kansas City Center
04:33PM 38.7078 -90.6758 88° East 338 389 9,800 -720 Descending Kansas City Center
04:34PM 38.7128 -90.5703 86° East 303 349 8,900 -1,080 Descending Kansas City Center
04:35PM 38.6922 -90.4758 106° East 287 330 7,600 -1,440 Descending Kansas City Center
04:36PM 38.6553 -90.3922 119° Southeast 284 327 6,000 -1,740 Descending Kansas City Center
04:37PM 38.6117 -90.2897 119° Southeast 282 325 4,100 -960 Descending Kansas City Center
04:38PM 38.5842 -90.2136 115° Southeast 265 305 4,000 -60 Descending Kansas City Center
04:39PM 38.6281 -90.1875 25° Northeast 227 261 4,000 -540 Level Kansas City Center
04:40PM 38.6728 -90.2211 330° Northwest 200 230 2,900 -1,080 Descending Kansas City Center
04:41PM 38.7081 -90.2772 309° West 181 208 1,800 -1,080 Descending Kansas City Center